Time,TemperatureF,DewpointF,PressureIn,WindDirection,WindDirectionDegrees,WindSpeedMPH,WindSpeedGustMPH,Humidity,HourlyPrecipIn,Conditions,Clouds,dailyrainin,SoftwareType,DateUTC
2013-06-01 00:00:00,70.0,65.0,30.06,South,191,4.0,7.0,83,-99.99,,,-99.99,,2013-06-01 04:00:00,
2013-06-01 00:23:00,70.0,65.0,30.06,South,191,4.0,7.0,83,-99.99,,,-99.99,,2013-06-01 04:23:00,
2013-06-01 00:33:00,70.0,65.0,30.06,South,191,4.0,7.0,83,-99.99,,,-99.99,,2013-06-01 04:33:00,
2013-06-01 00:42:00,70.0,65.0,30.06,South,191,4.0,7.0,83,-99.99,,,-99.99,,2013-06-01 04:42:00,
2013-06-01 00:53:00,70.0,65.0,30.06,South,191,4.0,7.0,83,-99.99,,,-99.99,,2013-06-01 04:53:00,
2013-06-01 01:00:00,70.0,64.0,30.06,SSW,194,5.0,7.0,81,-99.99,,,-99.99,,2013-06-01 05:00:00,
2013-06-01 01:32:00,70.0,64.0,30.06,SSW,194,5.0,7.0,81,-99.99,,,-99.99,,2013-06-01 05:32:00,
2013-06-01 01:43:00,70.0,64.0,30.06,SSW,194,5.0,7.0,81,-99.99,,,-99.99,,2013-06-01 05:43:00,
2013-06-01 01:52:00,70.0,64.0,30.06,SSW,194,5.0,7.0,81,-99.99,,,-99.99,,2013-06-01 05:52:00,
2013-06-01 02:00:00,69.0,63.0,30.03,SW,222,2.0,8.0,83,-99.99,,,-99.99,,2013-06-01 06:00:00,
2013-06-01 02:32:00,69.0,63.0,30.03,SW,222,2.0,8.0,83,-99.99,,,-99.99,,2013-06-01 06:32:00,
2013-06-01 02:42:00,69.0,63.0,30.03,SW,222,2.0,8.0,83,-99.99,,,-99.99,,2013-06-01 06:42:00,
2013-06-01 02:52:00,69.0,63.0,30.03,SW,222,2.0,8.0,83,-99.99,,,-99.99,,2013-06-01 06:52:00,
2013-06-01 03:00:00,66.0,63.0,30.03,SSW,193,4.0,5.0,90,-99.99,,,-99.99,,2013-06-01 07:00:00,
2013-06-01 03:32:00,66.0,63.0,30.03,SSW,193,4.0,5.0,90,-99.99,,,-99.99,,2013-06-01 07:32:00,
2013-06-01 03:42:00,66.0,63.0,30.03,SSW,193,4.0,5.0,90,-99.99,,,-99.99,,2013-06-01 07:42:00,
2013-06-01 03:52:00,66.0,63.0,30.03,SSW,193,4.0,5.0,90,-99.99,,,-99.99,,2013-06-01 07:52:00,
2013-06-01 05:00:00,67.0,63.0,30.03,SW,221,4.0,9.0,88,-99.99,,,-99.99,,2013-06-01 09:00:00,
2013-06-01 05:22:00,67.0,63.0,30.03,SW,221,4.0,9.0,88,-99.99,,,-99.99,,2013-06-01 09:22:00,
2013-06-01 05:33:00,67.0,63.0,30.03,SW,221,4.0,9.0,88,-99.99,,,-99.99,,2013-06-01 09:33:00,
2013-06-01 05:43:00,67.0,63.0,30.03,SW,221,4.0,9.0,88,-99.99,,,-99.99,,2013-06-01 09:43:00,
2013-06-01 05:53:00,67.0,63.0,30.03,SW,221,4.0,9.0,88,-99.99,,,-99.99,,2013-06-01 09:53:00,
2013-06-01 06:00:00,67.0,64.0,30.03,SW,227,6.0,11.0,89,-99.99,,,-99.99,,2013-06-01 10:00:00,
2013-06-01 06:33:00,67.0,64.0,30.03,SW,227,6.0,11.0,89,-99.99,,,-99.99,,2013-06-01 10:33:00,
2013-06-01 06:42:00,67.0,64.0,30.03,SW,227,6.0,11.0,89,-99.99,,,-99.99,,2013-06-01 10:42:00,
2013-06-01 06:53:00,67.0,64.0,30.03,SW,227,6.0,11.0,89,-99.99,,,-99.99,,2013-06-01 10:53:00,
2013-06-01 07:00:00,72.0,66.0,30.03,SSW,206,5.0,11.0,81,-99.99,,,-99.99,,2013-06-01 11:00:00,
2013-06-01 07:22:00,72.0,66.0,30.03,SSW,206,5.0,11.0,81,-99.99,,,-99.99,,2013-06-01 11:22:00,
2013-06-01 07:33:00,72.0,66.0,30.03,SSW,206,5.0,11.0,81,-99.99,,,-99.99,,2013-06-01 11:33:00,
2013-06-01 07:42:00,72.0,66.0,30.03,SSW,206,5.0,11.0,81,-99.99,,,-99.99,,2013-06-01 11:42:00,
2013-06-01 07:52:00,72.0,66.0,30.03,SSW,206,5.0,11.0,81,-99.99,,,-99.99,,2013-06-01 11:52:00,
2013-06-01 08:00:00,76.0,66.0,30.03,SW,234,10.0,15.0,70,-99.99,,,-99.99,,2013-06-01 12:00:00,
2013-06-01 08:22:00,76.0,66.0,30.03,SW,234,10.0,15.0,70,-99.99,,,-99.99,,2013-06-01 12:22:00,
2013-06-01 08:32:00,76.0,66.0,30.03,SW,234,10.0,15.0,70,-99.99,,,-99.99,,2013-06-01 12:32:00,
2013-06-01 08:42:00,76.0,66.0,30.03,SW,234,10.0,15.0,70,-99.99,,,-99.99,,2013-06-01 12:42:00,
2013-06-01 08:52:00,76.0,66.0,30.03,SW,234,10.0,15.0,70,-99.99,,,-99.99,,2013-06-01 12:52:00,
2013-06-01 09:00:00,80.0,67.0,30.03,SW,230,7.0,16.0,64,-99.99,,,-99.99,,2013-06-01 13:00:00,
2013-06-01 09:22:00,80.0,67.0,30.03,SW,230,7.0,16.0,64,-99.99,,,-99.99,,2013-06-01 13:22:00,
2013-06-01 09:32:00,80.0,67.0,30.03,SW,230,7.0,16.0,64,-99.99,,,-99.99,,2013-06-01 13:32:00,
2013-06-01 09:42:00,80.0,67.0,30.03,SW,230,7.0,16.0,64,-99.99,,,-99.99,,2013-06-01 13:42:00,
2013-06-01 09:52:00,80.0,67.0,30.03,SW,230,7.0,16.0,64,-99.99,,,-99.99,,2013-06-01 13:52:00,
2013-06-01 10:00:00,83.0,65.0,30.03,SW,219,12.0,17.0,55,-99.99,,,-99.99,,2013-06-01 14:00:00,
2013-06-01 10:22:00,83.0,65.0,30.03,SW,219,12.0,17.0,55,-99.99,,,-99.99,,2013-06-01 14:22:00,
2013-06-01 10:32:00,83.0,65.0,30.03,SW,219,12.0,17.0,55,-99.99,,,-99.99,,2013-06-01 14:32:00,
2013-06-01 10:42:00,83.0,65.0,30.03,SW,219,12.0,17.0,55,-99.99,,,-99.99,,2013-06-01 14:42:00,
2013-06-01 10:52:00,83.0,65.0,30.03,SW,219,12.0,17.0,55,-99.99,,,-99.99,,2013-06-01 14:52:00,
2013-06-01 11:00:00,86.0,64.0,30.00,WSW,250,16.0,19.0,47,-99.99,,,-99.99,,2013-06-01 15:00:00,
2013-06-01 11:22:00,86.0,64.0,30.00,WSW,250,16.0,19.0,47,-99.99,,,-99.99,,2013-06-01 15:22:00,
2013-06-01 11:33:00,86.0,64.0,30.00,WSW,250,16.0,19.0,47,-99.99,,,-99.99,,2013-06-01 15:33:00,
2013-06-01 11:43:00,86.0,64.0,30.00,WSW,250,16.0,19.0,47,-99.99,,,-99.99,,2013-06-01 15:43:00,
2013-06-01 11:54:00,86.0,64.0,30.00,WSW,250,16.0,19.0,47,-99.99,,,-99.99,,2013-06-01 15:54:00,
2013-06-01 12:00:00,87.0,64.0,30.00,West,259,14.0,23.0,45,-99.99,,,-99.99,,2013-06-01 16:00:00,
2013-06-01 12:33:00,87.0,64.0,30.00,West,259,14.0,23.0,45,-99.99,,,-99.99,,2013-06-01 16:33:00,
2013-06-01 12:42:00,87.0,64.0,30.00,West,259,14.0,23.0,45,-99.99,,,-99.99,,2013-06-01 16:42:00,
2013-06-01 12:53:00,87.0,64.0,30.00,West,259,14.0,23.0,45,-99.99,,,-99.99,,2013-06-01 16:53:00,
2013-06-01 13:00:00,88.0,65.0,29.97,SSW,198,11.0,27.0,47,-99.99,,,-99.99,,2013-06-01 17:00:00,
2013-06-01 13:22:00,88.0,65.0,29.97,SSW,198,11.0,27.0,47,-99.99,,,-99.99,,2013-06-01 17:22:00,
2013-06-01 13:32:00,88.0,65.0,29.97,SSW,198,11.0,27.0,47,-99.99,,,-99.99,,2013-06-01 17:32:00,
2013-06-01 13:43:00,88.0,65.0,29.97,SSW,198,11.0,27.0,47,-99.99,,,-99.99,,2013-06-01 17:43:00,
2013-06-01 13:52:00,88.0,65.0,29.97,SSW,198,11.0,27.0,47,-99.99,,,-99.99,,2013-06-01 17:52:00,
2013-06-01 14:00:00,90.0,64.0,29.97,SW,230,11.0,25.0,42,-99.99,,,-99.99,,2013-06-01 18:00:00,
2013-06-01 14:22:00,90.0,64.0,29.97,SW,230,11.0,25.0,42,-99.99,,,-99.99,,2013-06-01 18:22:00,
2013-06-01 14:32:00,90.0,64.0,29.97,SW,230,11.0,25.0,42,-99.99,,,-99.99,,2013-06-01 18:32:00,
2013-06-01 14:42:00,90.0,64.0,29.97,SW,230,11.0,25.0,42,-99.99,,,-99.99,,2013-06-01 18:42:00,
2013-06-01 14:52:00,90.0,64.0,29.97,SW,230,11.0,25.0,42,-99.99,,,-99.99,,2013-06-01 18:52:00,
2013-06-01 15:00:00,89.0,62.0,29.94,SW,228,22.0,23.0,40,-99.99,,,-99.99,,2013-06-01 19:00:00,
2013-06-01 15:32:00,89.0,62.0,29.94,SW,228,22.0,23.0,40,-99.99,,,-99.99,,2013-06-01 19:32:00,
2013-06-01 15:42:00,89.0,62.0,29.94,SW,228,22.0,23.0,40,-99.99,,,-99.99,,2013-06-01 19:42:00,
2013-06-01 15:53:00,89.0,62.0,29.94,SW,228,22.0,23.0,40,-99.99,,,-99.99,,2013-06-01 19:53:00,
2013-06-01 16:00:00,88.0,67.0,29.94,South,185,12.0,23.0,50,-99.99,,,-99.99,,2013-06-01 20:00:00,
2013-06-01 16:22:00,88.0,67.0,29.94,South,185,12.0,23.0,50,-99.99,,,-99.99,,2013-06-01 20:22:00,
2013-06-01 16:32:00,88.0,67.0,29.94,South,185,12.0,23.0,50,-99.99,,,-99.99,,2013-06-01 20:32:00,
2013-06-01 16:42:00,88.0,67.0,29.94,South,185,12.0,23.0,50,-99.99,,,-99.99,,2013-06-01 20:42:00,
2013-06-01 16:52:00,88.0,67.0,29.94,South,185,12.0,23.0,50,-99.99,,,-99.99,,2013-06-01 20:52:00,
2013-06-01 17:00:00,86.0,66.0,29.94,SSW,200,10.0,20.0,52,-99.99,,,-99.99,,2013-06-01 21:00:00,
2013-06-01 17:22:00,86.0,66.0,29.94,SSW,200,10.0,20.0,52,-99.99,,,-99.99,,2013-06-01 21:22:00,
2013-06-01 17:33:00,86.0,66.0,29.94,SSW,200,10.0,20.0,52,-99.99,,,-99.99,,2013-06-01 21:33:00,
2013-06-01 17:43:00,86.0,66.0,29.94,SSW,200,10.0,20.0,52,-99.99,,,-99.99,,2013-06-01 21:43:00,
2013-06-01 17:53:00,86.0,66.0,29.94,SSW,200,10.0,20.0,52,-99.99,,,-99.99,,2013-06-01 21:53:00,
2013-06-01 18:00:00,86.0,66.0,29.91,South,172,14.0,19.0,53,-99.99,,,-99.99,,2013-06-01 22:00:00,
2013-06-01 18:33:00,86.0,66.0,29.91,South,172,14.0,19.0,53,-99.99,,,-99.99,,2013-06-01 22:33:00,
2013-06-01 18:42:00,86.0,66.0,29.91,South,172,14.0,19.0,53,-99.99,,,-99.99,,2013-06-01 22:42:00,
2013-06-01 18:53:00,86.0,66.0,29.91,South,172,14.0,19.0,53,-99.99,,,-99.99,,2013-06-01 22:53:00,
2013-06-01 19:00:00,83.0,67.0,29.91,SSW,196,8.0,18.0,58,-99.99,,,-99.99,,2013-06-01 23:00:00,
2013-06-01 19:22:00,83.0,67.0,29.91,SSW,196,8.0,18.0,58,-99.99,,,-99.99,,2013-06-01 23:22:00,
2013-06-01 19:32:00,83.0,67.0,29.91,SSW,196,8.0,18.0,58,-99.99,,,-99.99,,2013-06-01 23:32:00,
2013-06-01 19:42:00,83.0,67.0,29.91,SSW,196,8.0,18.0,58,-99.99,,,-99.99,,2013-06-01 23:42:00,
2013-06-01 19:52:00,83.0,67.0,29.91,SSW,196,8.0,18.0,58,-99.99,,,-99.99,,2013-06-01 23:52:00,
2013-06-01 20:00:00,78.0,66.0,29.94,SSE,159,6.0,15.0,67,-99.99,,,-99.99,,2013-06-02 00:00:00,
2013-06-01 20:32:00,78.0,66.0,29.94,SSE,159,6.0,15.0,67,-99.99,,,-99.99,,2013-06-02 00:32:00,
2013-06-01 20:42:00,78.0,66.0,29.94,SSE,159,6.0,15.0,67,-99.99,,,-99.99,,2013-06-02 00:42:00,
2013-06-01 20:52:00,78.0,66.0,29.94,SSE,159,6.0,15.0,67,-99.99,,,-99.99,,2013-06-02 00:52:00,
2013-06-01 21:00:00,74.0,66.0,29.94,SSW,195,3.0,10.0,75,-99.99,,,-99.99,,2013-06-02 01:00:00,
2013-06-01 21:22:00,74.0,66.0,29.94,SSW,195,3.0,10.0,75,-99.99,,,-99.99,,2013-06-02 01:22:00,
2013-06-01 21:32:00,74.0,66.0,29.94,SSW,195,3.0,10.0,75,-99.99,,,-99.99,,2013-06-02 01:32:00,
2013-06-01 21:42:00,74.0,66.0,29.94,SSW,195,3.0,10.0,75,-99.99,,,-99.99,,2013-06-02 01:42:00,
2013-06-01 21:52:00,74.0,66.0,29.94,SSW,195,3.0,10.0,75,-99.99,,,-99.99,,2013-06-02 01:52:00,
2013-06-01 22:00:00,73.0,66.0,29.94,South,186,4.0,11.0,78,-99.99,,,-99.99,,2013-06-02 02:00:00,
2013-06-01 22:32:00,73.0,66.0,29.94,South,186,4.0,11.0,78,-99.99,,,-99.99,,2013-06-02 02:32:00,
2013-06-01 22:42:00,73.0,66.0,29.94,South,186,4.0,11.0,78,-99.99,,,-99.99,,2013-06-02 02:42:00,
2013-06-01 22:52:00,73.0,66.0,29.94,South,186,4.0,11.0,78,-99.99,,,-99.99,,2013-06-02 02:52:00,
2013-06-01 23:00:00,73.0,-99.9,29.94,SSW,199,5.0,10.0,77,-99.99,,,-99.99,,2013-06-02 03:00:00,
2013-06-01 23:22:00,73.0,65.0,29.94,SSW,199,5.0,10.0,77,-99.99,,,-99.99,,2013-06-02 03:22:00,
2013-06-01 23:33:00,73.0,65.0,29.94,SSW,199,5.0,10.0,77,-99.99,,,-99.99,,2013-06-02 03:33:00,
2013-06-01 23:43:00,73.0,65.0,29.94,SSW,199,5.0,10.0,77,-99.99,,,-99.99,,2013-06-02 03:43:00,
2013-06-01 23:53:00,73.0,65.0,29.94,SSW,199,5.0,10.0,77,-99.99,,,-99.99,,2013-06-02 03:53:00,